Jack C. Davis Observatory, Carson City, Nevada Weather observations

Data are for observation ending at time listed.
 Day   Time    Ave.   Ave.  Ave.  Vector   Max.   Stn.    Total    Solar   Ave.  
  of    of     Air    Rel.  Wind   Wind    Wind   Baro.  Precip.   Rad.    Soil  
Year   Day     Temp.  Hum.  Speed  Dir.    Gust   Pres.                    Temp. 
2017   (PST)    F      %     mph   deg.    mph     mb.     in.     W/m2     F   
------------------------------------------------------------------------------
  22   11:20   35.5    88    6.1   141     10.0   600.2    0.03     202    999.0
  22   11:30   36.3    86    3.5   155      7.0   600.1    0.02     154    999.0
  22   11:40   36.9    85    2.0   325      3.9   600.2    0.02     178    999.0
  22   11:50   35.7    87    4.2   317      8.3   600.1    0.01     199    999.0
  22   12:00   36.1    86    2.4   188      6.6   600.2    0.03     193    999.0
  22   12:10   36.7    82    4.7   196     13.0   600.2    0.02     168    999.0
  22   12:20   36.4    83    4.6   196      7.9   600.2    0.02     192    999.0
  22   12:30   37.1    82    4.6   274      9.0   600.4    0.03     422    999.0
  22   12:40   36.5    86    5.2   310     10.4   600.5    0.03     382    999.0
  22   12:50   36.7    85    7.6   307     12.4   600.3    0.03     408    999.0
  22   13:00   36.4    85    3.9   295      7.5   600.3    0.02     233    999.0
  22   13:10   38.1    72    3.7   234     10.0   600.2    0.02     268    999.0
  22   13:20   38.7    75    2.6   122      7.4   600.2    0.02     331    999.0
  22   13:30   40.1    66    3.4   271      8.1   600.3    0.01     258    999.0
  22   13:40   37.6    71    4.8   272      8.3   600.3    0.00     236    999.0
  22   13:50   37.4    72    3.8   267      7.3   600.3    0.00     231    999.0
  22   14:00   38.7    72    1.6   112      4.4   600.2    0.00     270    999.0
  22   14:10   39.0    71    1.8    24      5.7   600.3    0.00     246    999.0
  22   14:20   39.0    71    1.9    15      4.2   600.3    0.00     248    999.0
  22   14:30   38.4    74    1.9    24      4.2   600.4    0.00     198    999.0
  22   14:40   38.3    75    1.8   344      5.6   600.3    0.00     177    999.0
  22   14:50   36.9    79    4.6   315      6.9   600.4    0.00     180    999.0
  22   15:00   36.2    80    3.6   300      6.8   600.2    0.00     138    999.0
  22   15:10   36.1    79    4.6   293      7.2   600.3    0.00     115    999.0
  22   15:20   36.8    77    1.7   306      3.7   600.2    0.00     121    999.0
  22   15:30   36.9    75    2.0    44      4.7   600.2    0.00     111    999.0
  22   15:40   36.4    80    2.2   330      6.4   600.2    0.00      88    999.0
  22   15:50   35.7    82    3.2   316      6.0   600.1    0.00      78    999.0
  22   16:00   35.4    80    4.4   329      9.6   600.1    0.00      57    999.0
  22   16:10   35.0    81    4.7   322      9.6   600.1    0.00      40    999.0
  22   16:20   34.9    79    4.7   286      8.8   600.1    0.00      31    999.0
  22   16:30   34.9    81    2.1   324      5.1   600.1    0.00      29    999.0
  22   16:40   34.5    82    1.8   312      6.5   600.1    0.00      13    999.0
  22   16:50   33.8    85    6.5   304      9.3   600.1    0.00       8    999.0
  22   17:00   34.1    80    3.6   245      7.2   600.1    0.00       5    999.0
  22   17:10   35.0    74    2.7   234      4.4   600.1    0.00       2    999.0
  22   17:20   35.5    67    8.8   221     18.6   600.1    0.00       1    999.0
  22   17:30   36.6    59   11.5   208     20.8   600.2    0.00       1    999.0
  22   17:40   36.1    60   11.8   222     18.3   600.1    0.00       1    999.0
  22   17:50   35.7    62   11.2   238     19.1   600.1    0.00       0    999.0
  22   18:00   35.1    66    6.1   277     13.2   600.1    0.00       0    999.0
  22   18:10   35.2    64    5.3   300     11.5   600.1    0.00       0    999.0
  22   18:20   34.8    66    3.9    40     10.8   600.1    0.00       0    999.0
  22   18:30   33.2    76    7.0    27     17.3   600.1    0.00       0    999.0
  22   18:40   33.1    75    4.8   346     12.3   600.1    0.00       0    999.0
  22   18:50   33.2    76    6.4   313     12.2   600.1    0.00       0    999.0
  22   19:00   32.8    79    6.3   295     10.3   600.1    0.00       0    999.0
  22   19:10   32.6    82    3.0   281      4.7   600.1    0.00       0    999.0
  22   19:20   31.5    89    3.8   309      6.2   600.1    0.00       0    999.0
  22   19:30   31.1    92    3.4   301      5.4   600.1    0.00       0    999.0
  22   19:40   30.8    93    6.1   308     10.4   600.1    0.00       0    999.0
  22   19:50   30.4    94    6.2   311      9.9   600.1    0.00       0    999.0
  22   20:00   30.1    94    6.1   305     10.4   600.1    0.00       0    999.0
  22   20:10   29.8    94    5.7   318     11.0   600.1    0.00       0    999.0
  22   20:20   29.8    94    3.6    14      7.3   600.1    0.00       0    999.0
  22   20:30   29.9    94    3.8    60      8.1   600.1    0.00       0    999.0
  22   20:40   30.3    95    3.9    96      7.2   600.1    0.00       0    999.0
  22   20:50   30.5    95    4.5   138      9.9   600.1    0.00       0    999.0
  22   21:00   30.4    95    3.5   153      6.7   600.1    0.00       0    999.0
  22   21:10   30.2    95    4.9   158      9.1   600.1    0.00       0    999.0
  22   21:20   30.3    95    5.4   162     10.1   600.1    0.00       0    999.0
  22   21:30   30.5    95    5.3   121      8.3   600.1    0.00       0    999.0
  22   21:40   30.3    95    4.8   117      8.7   600.1    0.00       0    999.0
  22   21:50   30.0    95    4.5   133      8.3   600.0    0.00       0    999.0
  22   22:00   29.8    96    3.4   109      5.8   600.1    0.00       0    999.0
  22   22:10   29.7    96    3.2    58      6.2   600.1    0.00       0    999.0
  22   22:20   29.7    96    3.6    74      6.6   600.1    0.00       0    999.0
  22   22:30   29.5    96    3.3   109      5.3   600.1    0.00       0    999.0
  22   22:40   29.6    96    2.4   117      4.2   600.1    0.00       0    999.0
  22   22:50   29.7    96    3.2   116      7.3   600.1    0.00       0    999.0
  22   23:00   29.7    95    3.8    94      6.6   600.1    0.00       0    999.0
  22   23:10   29.6    95    4.4    85      6.6   600.1    0.00       0    999.0
  22   23:20   29.5    95    3.9    96      6.6   600.1    0.00       0    999.0
  22   23:30   29.1    94    1.8   151      3.4   600.1    0.00       0    999.0
  22   23:40   29.2    91    3.8   292      9.9   600.1    0.00       0    999.0
  22   23:50   29.3    88    2.0   345      9.2   600.1    0.00       0    999.0
  23    0:00   29.0    87    3.3   150      7.0   600.1    0.00       0    999.0
  23    0:10   29.1    84    1.8    45      3.3   600.1    0.00       0    999.0
  23    0:20   29.0    86    2.0    70      3.5   600.0    0.00       0    999.0
  23    0:30   28.8    87    0.2    44      1.5   600.1    0.00       0    999.0
  23    0:40   28.6    87    1.2   324      2.5   600.1    0.00       0    999.0
  23    0:50   28.5    87    0.5   345      2.2   600.1    0.00       0    999.0
  23    1:00   28.6    87    0.6    54      1.8   600.1    0.00       0    999.0
  23    1:10   28.3    89    1.1    14      3.0   600.1    0.00       0    999.0
  23    1:20   28.1    90    0.3   240      2.0   600.1    0.00       0    999.0
  23    1:30   28.0    90    0.0     0      0.0   600.1    0.00       0    999.0
  23    1:40   27.9    91    0.0     0      0.0   600.1    0.00       0    999.0
  23    1:50   27.8    92    0.0     0      0.0   600.1    0.00       0    999.0
  23    2:00   27.8    92    0.0     0      0.0   600.1    0.00       0    999.0
  23    2:10   27.8    92    0.0     0      0.0   600.1    0.00       0    999.0
  23    2:20   27.7    93    1.1    73      4.5   600.1    0.00       0    999.0
  23    2:30   27.6    93    1.7   304      2.9   600.1    0.00       0    999.0
  23    2:40   27.6    93    1.3   340      2.3   600.1    0.00       0    999.0
  23    2:50   27.7    94    1.5     7      2.8   600.1    0.00       0    999.0
  23    3:00   27.6    94    0.4    37      2.0   600.1    0.00       0    999.0
  23    3:10   27.5    94    2.2    43      4.1   600.1    0.00       0    999.0
  23    3:20   27.5    94    2.8    43      4.5   600.1    0.00       0    999.0
  23    3:30   27.6    93    2.9    83      6.0   600.1    0.00       0    999.0
  23    3:40   27.7    91    2.1   105      6.8   600.1    0.00       0    999.0
  23    3:50   27.8    89    5.0   147     10.2   600.1    0.00       0    999.0
  23    4:00   27.8    89    5.1   164      7.9   600.1    0.00       0    999.0
  23    4:10   27.6    91    5.1   151      8.6   600.1    0.00       0    999.0
  23    4:20   27.4    92    4.7   154      7.4   600.1    0.00       0    999.0
  23    4:30   27.3    93    3.9   126      7.0   600.1    0.00       0    999.0
  23    4:40   27.3    93    2.8   147      5.0   600.1    0.00       0    999.0
  23    4:50   27.2    94    2.4   167      4.5   600.1    0.00       0    999.0
  23    5:00   27.2    94    2.0   169      4.0   600.1    0.00       0    999.0
  23    5:10   27.2    94    0.8   156      3.1   600.1    0.00       0    999.0
  23    5:20   27.2    94    1.7    78      3.1   600.1    0.00       0    999.0
  23    5:30   27.2    94    1.6   344      2.9   600.1    0.00       0    999.0
  23    5:40   27.1    94    1.3    44      2.4   600.1    0.00       0    999.0
  23    5:50   27.1    94    0.5    28      1.4   600.1    0.00       0    999.0
  23    6:00   26.9    94    0.8   304      2.0   600.1    0.00       0    999.0
  23    6:10   26.7    94    2.0   330      4.5   600.1    0.00       0    999.0
  23    6:20   26.2    94    1.7   346      5.0   600.1    0.00       0    999.0
  23    6:30   26.3    94    2.5   316      4.6   600.1    0.00       0    999.0
  23    6:40   26.5    92    1.5   295      4.7   600.1    0.00       0    999.0
  23    6:50   26.5    90    2.9   278      5.6   600.1    0.00       0    999.0
  23    7:00   25.9    90    3.4   271      4.7   600.1    0.00       0    999.0
  23    7:10   26.2    82    3.3   225      5.7   600.1    0.00       1    999.0
  23    7:20   27.0    76    5.9   202      9.9   600.1    0.00       1    999.0
  23    7:30   27.1    75    6.6   211      9.9   600.1    0.00       1    999.0
  23    7:40   27.1    77    3.6   162      9.2   600.1    0.00       4    999.0
  23    7:50   26.8    78    3.0   200      8.0   600.1    0.00       5    999.0
  23    8:00   27.3    76    8.4   190     11.1   600.1    0.00       6    999.0
  23    8:10   27.7    76    7.5   188     11.6   600.1    0.00       9    999.0
  23    8:20   29.6    72    5.6   182      9.6   600.1    0.00      66    999.0
  23    8:30   32.0    69    5.2   172     10.4   600.1    0.00      72    999.0
  23    8:40   31.8    73    4.8   140      8.4   600.2    0.00      97    999.0
  23    8:50   34.4    70    1.9    29      5.2   600.2    0.00     120    999.0
  23    9:00   32.1    74    3.1    50      5.9   600.2    0.02      96    999.0
  23    9:10   30.4    78    3.1    47      6.1   600.3    0.01     121    999.0
  23    9:20   32.5    74    3.2   306      5.0   600.3    0.02     132    999.0
  23    9:30   32.3    74    1.0   346      2.9   600.3    0.02      78    999.0
  23    9:40   31.2    76    1.5    66      3.4   600.3    0.00      73    999.0
  23    9:50   32.6    74    1.2   124      2.9   600.3    0.02      96    999.0
  23   10:00   34.2    70    1.8   188      3.1   600.3    0.01     104    999.0
  23   10:10   31.1    77    2.3   236      3.5   600.2    0.01      84    999.0
  23   10:20   31.2    78    0.5   212      2.5   600.2    0.00      73    999.0
  23   10:30   34.5    69    0.2   150      2.0   600.2    0.02     110    999.0
  23   10:40   34.6    68    2.9   140      6.2   600.4    0.01     114    999.0
  23   10:50   33.4    70    3.4   166      5.9   600.4    0.02     132    999.0
  23   11:00   34.5    67    3.3   152      5.8   600.4    0.02     209    999.0
  23   11:10   34.8    65    3.7   143      6.2   600.5    0.02     208    999.0

Return to Yerington, Nevada graphs page.


Western Regional Climate Center,wrcc@dri.edu